Time;durP1;ratioP1;P1;durP2;ratioP2;P2;SDS_P1;SDS_P2;PMS_P1;PMS_P2;Temp;Humidity;BMP_temperature;BMP_pressure;BME280_temperature;BME280_humidity;BME280_pressure;Samples;Min_cycle;Max_cycle;Signal;HPM_P1;HPM_P2
2022/01/28 00:00:32;;;;;;;8.85;5.38;;;9.20;99.90;;;;;;5033481;28;20029;-67
2022/01/28 00:03:07;;;;;;;8.90;5.25;;;9.20;99.90;;;;;;5033098;28;20071;-67
2022/01/28 00:05:35;;;;;;;9.73;5.10;;;9.20;99.90;;;;;;5033432;28;20026;-68
2022/01/28 00:08:01;;;;;;;9.77;4.75;;;9.20;99.90;;;;;;5033249;28;20041;-69
2022/01/28 00:10:29;;;;;;;7.40;5.00;;;9.20;99.90;;;;;;5033120;28;20112;-68
2022/01/28 00:37:59;;;;;;;9.60;4.93;;;9.10;99.90;;;;;;5032400;28;20040;-69
2022/01/28 00:40:12;;;;;;;10.88;5.15;;;9.10;99.90;;;;;;5032377;28;20382;-68
2022/01/28 00:42:39;;;;;;;9.90;5.10;;;9.10;99.90;;;;;;5032355;28;20033;-69
2022/01/28 00:45:05;;;;;;;8.65;4.40;;;9.10;99.90;;;;;;5032550;28;20045;-67
2022/01/28 00:47:31;;;;;;;9.32;4.85;;;9.20;99.90;;;;;;5032469;28;20032;-68
2022/01/28 00:49:57;;;;;;;9.57;4.13;;;9.20;99.90;;;;;;5012647;28;20061;-69
2022/01/28 00:52:23;;;;;;;10.23;4.53;;;9.20;99.90;;;;;;5012396;28;20041;-69
2022/01/28 00:54:49;;;;;;;9.52;4.60;;;9.20;99.90;;;;;;5012423;28;20097;-69
2022/01/28 00:57:15;;;;;;;9.05;3.80;;;9.20;99.90;;;;;;5012654;28;20137;-67
2022/01/28 00:59:41;;;;;;;9.80;4.15;;;9.20;99.90;;;;;;5025296;28;20080;-67
2022/01/28 01:02:07;;;;;;;11.18;4.72;;;9.20;99.90;;;;;;5031926;28;20025;-67
2022/01/28 01:04:33;;;;;;;7.97;5.13;;;9.10;99.90;;;;;;5031893;28;20335;-69
2022/01/28 01:07:01;;;;;;;7.15;4.30;;;9.10;99.90;;;;;;5031616;28;20441;-68
2022/01/28 01:09:27;;;;;;;11.35;4.95;;;9.10;99.90;;;;;;5031900;28;20021;-69
2022/01/28 01:11:53;;;;;;;8.85;4.57;;;9.00;99.90;;;;;;5031580;28;20070;-67
2022/01/28 01:14:19;;;;;;;10.13;4.78;;;9.00;99.90;;;;;;5031501;28;20025;-67
2022/01/28 01:17:08;;;;;;;8.88;4.88;;;9.00;99.90;;;;;;5031389;28;20028;-68
2022/01/28 01:19:40;;;;;;;11.30;4.63;;;8.90;99.90;;;;;;5031501;28;20370;-67
2022/01/28 01:22:08;;;;;;;10.80;4.85;;;8.90;99.90;;;;;;5031709;28;20017;-67
2022/01/28 01:24:37;;;;;;;9.10;4.88;;;8.90;99.90;;;;;;5031289;28;20041;-68
2022/01/28 01:27:04;;;;;;;7.35;5.10;;;8.90;99.90;;;;;;5031094;28;20021;-68
2022/01/28 01:29:31;;;;;;;8.50;4.63;;;8.90;99.90;;;;;;5031048;28;20347;-67
2022/01/28 01:32:02;;;;;;;7.77;5.10;;;8.90;99.90;;;;;;5030900;28;20391;-67
2022/01/28 01:34:29;;;;;;;10.10;4.60;;;8.90;99.90;;;;;;5031082;28;20378;-68
2022/01/28 01:36:55;;;;;;;11.63;5.05;;;8.90;99.90;;;;;;5030939;28;20036;-68
2022/01/28 01:39:25;;;;;;;10.48;5.30;;;8.80;99.90;;;;;;5031341;28;20110;-68
2022/01/28 01:42:05;;;;;;;10.32;4.53;;;8.80;99.90;;;;;;5013106;28;20102;-68
2022/01/28 01:44:56;;;;;;;11.38;4.85;;;8.80;99.90;;;;;;5030657;28;20045;-68
2022/01/28 01:52:46;;;;;;;8.80;4.50;;;8.90;99.90;;;;;;5030988;28;20124;-69
2022/01/28 01:55:12;;;;;;;11.18;5.15;;;8.90;99.90;;;;;;5030896;28;20444;-67
2022/01/28 01:57:38;;;;;;;12.57;5.00;;;9.00;99.90;;;;;;5030785;28;20021;-68
2022/01/28 02:00:06;;;;;;;6.75;4.18;;;8.90;99.90;;;;;;5030720;28;20075;-67
2022/01/28 02:02:32;;;;;;;11.88;4.70;;;9.00;99.90;;;;;;5030399;28;20042;-68
2022/01/28 02:04:58;;;;;;;7.63;4.57;;;9.00;99.90;;;;;;5030600;28;20029;-67
2022/01/28 02:07:26;;;;;;;12.40;4.20;;;8.90;99.90;;;;;;5030748;28;20017;-68
2022/01/28 02:09:52;;;;;;;6.22;4.30;;;9.00;99.90;;;;;;5030436;28;20037;-68
2022/01/28 02:12:18;;;;;;;7.75;3.22;;;9.00;99.90;;;;;;5030239;28;20522;-68
2022/01/28 02:14:45;;;;;;;9.30;4.60;;;9.10;99.90;;;;;;5030299;28;20200;-67
2022/01/28 02:17:12;;;;;;;8.43;3.80;;;9.00;99.90;;;;;;5030553;28;20044;-67
2022/01/28 02:19:39;;;;;;;7.28;3.65;;;9.00;99.90;;;;;;5030240;28;20021;-67
2022/01/28 02:22:05;;;;;;;9.13;3.95;;;9.00;99.90;;;;;;5030112;28;20083;-68
2022/01/28 02:24:39;;;;;;;10.13;4.22;;;8.90;99.90;;;;;;5030097;28;20499;-67
2022/01/28 02:27:06;;;;;;;6.10;3.78;;;8.80;99.90;;;;;;5030105;28;20041;-68
2022/01/28 02:29:34;;;;;;;6.47;3.90;;;8.80;99.90;;;;;;5030177;28;20109;-67
2022/01/28 02:32:03;;;;;;;7.38;4.10;;;8.70;99.90;;;;;;5030417;28;20021;-68
2022/01/28 02:34:30;;;;;;;9.85;4.38;;;8.80;99.90;;;;;;5030096;28;20045;-68
2022/01/28 02:36:56;;;;;;;10.15;3.97;;;8.80;99.90;;;;;;5030330;28;20156;-67
2022/01/28 02:39:23;;;;;;;7.47;4.40;;;8.80;99.90;;;;;;5030035;28;20438;-67
2022/01/28 02:41:53;;;;;;;8.38;4.20;;;8.80;99.90;;;;;;5030412;28;20104;-66
2022/01/28 02:44:24;;;;;;;6.93;3.63;;;8.80;99.90;;;;;;5030109;28;20378;-69
2022/01/28 02:46:57;;;;;;;7.65;4.18;;;8.80;99.90;;;;;;5030326;28;20087;-69
2022/01/28 02:49:27;;;;;;;8.82;3.90;;;8.80;99.90;;;;;;5030089;28;20029;-68
2022/01/28 02:51:54;;;;;;;6.97;3.40;;;8.80;99.90;;;;;;5030078;28;20393;-68
2022/01/28 02:54:20;;;;;;;;;;;8.80;99.90;;;;;;5030369;28;20486;-68
2022/01/28 02:56:50;;;;;;;5.03;3.17;;;8.80;99.90;;;;;;5029954;28;19952;-68
2022/01/28 02:59:16;;;;;;;7.65;3.15;;;8.90;99.90;;;;;;5029746;28;20109;-67
2022/01/28 03:01:43;;;;;;;7.57;3.28;;;8.90;99.90;;;;;;5032526;28;20040;-68
2022/01/28 03:04:12;;;;;;;7.10;3.20;;;8.80;99.90;;;;;;5033520;28;20049;-68
2022/01/28 03:06:38;;;;;;;7.97;3.85;;;8.80;99.90;;;;;;5034021;28;20450;-68
2022/01/28 03:09:19;;;;;;;7.35;3.85;;;8.80;99.90;;;;;;5033452;28;20045;-67
2022/01/28 03:11:57;;;;;;;6.28;3.45;;;8.70;99.90;;;;;;5033415;28;20025;-67
2022/01/28 03:14:36;;;;;;;10.38;3.70;;;8.70;99.90;;;;;;5033563;28;20026;-67
2022/01/28 03:17:29;;;;;;;7.78;3.90;;;8.60;99.90;;;;;;5033685;28;20068;-66
2022/01/28 03:20:05;;;;;;;7.07;3.40;;;8.60;99.90;;;;;;5033227;28;20362;-67
2022/01/28 03:22:33;;;;;;;8.07;3.78;;;8.60;99.90;;;;;;5033295;28;20030;-67
2022/01/28 03:24:59;;;;;;;;;;;8.60;99.90;;;;;;5033893;28;20423;-68
2022/01/28 03:27:48;;;;;;;5.90;3.50;;;8.60;99.90;;;;;;5033319;28;20318;-68
2022/01/28 03:30:13;;;;;;;6.90;3.40;;;8.60;99.90;;;;;;5032970;28;20077;-67
2022/01/28 03:32:39;;;;;;;5.72;3.35;;;8.50;99.90;;;;;;5033482;28;20033;-67
2022/01/28 03:35:06;;;;;;;5.65;2.63;;;8.50;99.90;;;;;;5033346;28;20013;-68
2022/01/28 03:37:32;;;;;;;7.18;3.83;;;8.50;99.90;;;;;;5033116;28;20048;-68
2022/01/28 03:40:00;;;;;;;7.93;3.35;;;8.50;99.90;;;;;;5033419;28;20101;-67
2022/01/28 03:42:26;;;;;;;4.72;2.88;;;8.50;99.90;;;;;;5032799;28;20116;-68
2022/01/28 03:44:52;;;;;;;5.82;3.05;;;8.60;99.90;;;;;;5032740;28;20116;-67
2022/01/28 03:47:18;;;;;;;6.63;3.33;;;8.60;99.90;;;;;;5032726;28;20109;-68
2022/01/28 03:49:44;;;;;;;6.68;3.50;;;8.70;99.90;;;;;;5032914;28;20033;-68
2022/01/28 03:52:10;;;;;;;6.70;3.10;;;8.60;99.90;;;;;;5032947;28;20025;-68
2022/01/28 03:54:36;;;;;;;5.35;3.10;;;8.60;99.90;;;;;;5033326;28;20026;-67
2022/01/28 03:57:04;;;;;;;6.53;3.28;;;8.60;99.90;;;;;;5033112;28;20034;-66
2022/01/28 03:59:30;;;;;;;6.47;3.15;;;8.50;99.90;;;;;;5033220;28;20481;-68
2022/01/28 04:01:56;;;;;;;5.57;2.80;;;8.50;99.90;;;;;;5033183;28;20481;-68
2022/01/28 04:12:34;;;;;;;6.88;3.00;;;8.40;99.90;;;;;;5032671;28;20255;-67
2022/01/28 04:15:08;;;;;;;7.78;3.00;;;8.40;99.90;;;;;;5033602;28;20029;-67
2022/01/28 04:17:34;;;;;;;7.28;2.90;;;8.40;99.90;;;;;;5033391;28;20056;-68
2022/01/28 04:20:00;;;;;;;4.95;2.90;;;8.50;99.90;;;;;;5033242;28;20033;-67
2022/01/28 04:22:26;;;;;;;6.30;3.00;;;8.50;99.90;;;;;;5032906;28;20026;-67
2022/01/28 04:24:52;;;;;;;5.63;2.67;;;8.50;99.90;;;;;;5032875;28;20037;-67
2022/01/28 04:27:18;;;;;;;5.85;3.10;;;8.60;99.90;;;;;;5015421;28;20445;-68
2022/01/28 04:29:44;;;;;;;5.90;2.60;;;8.70;99.90;;;;;;5033930;28;20025;-67
2022/01/28 04:32:11;;;;;;;4.60;2.53;;;8.70;99.90;;;;;;5034336;28;20030;-68
2022/01/28 04:34:38;;;;;;;4.95;3.15;;;8.70;99.90;;;;;;5034190;28;20391;-68
2022/01/28 04:47:18;;;;;;;7.20;3.20;;;8.60;99.90;;;;;;5033324;28;20022;-68
2022/01/28 04:55:12;;;;;;;4.38;2.60;;;8.60;99.90;;;;;;5032896;28;20363;-68
2022/01/28 04:58:03;;;;;;;4.70;2.72;;;8.60;99.90;;;;;;5033528;28;20017;-68
2022/01/28 05:00:50;;;;;;;4.88;2.90;;;8.60;99.90;;;;;;5033729;28;20022;-67
2022/01/28 05:27:37;;;;;;;5.97;2.85;;;8.60;99.90;;;;;;5033747;28;20116;-67
2022/01/28 05:30:05;;;;;;;6.28;3.00;;;8.60;99.90;;;;;;5034170;28;20029;-67
2022/01/28 05:32:32;;;;;;;5.30;2.47;;;8.60;99.90;;;;;;5033682;28;20033;-67
2022/01/28 05:34:58;;;;;;;7.60;3.47;;;8.60;99.90;;;;;;5033760;28;20018;-67
2022/01/28 05:37:24;;;;;;;5.07;2.80;;;8.50;99.90;;;;;;5033949;28;20017;-67
2022/01/28 05:39:50;;;;;;;8.10;3.00;;;8.50;99.90;;;;;;5033722;28;20036;-67
2022/01/28 05:42:16;;;;;;;7.88;3.78;;;8.50;99.90;;;;;;5032974;28;20149;-67
2022/01/28 05:44:42;;;;;;;6.80;3.60;;;8.40;99.90;;;;;;5032387;28;20072;-68
2022/01/28 05:47:13;;;;;;;6.32;4.07;;;8.30;99.90;;;;;;5033281;28;20049;-67
2022/01/28 05:49:41;;;;;;;6.45;3.40;;;8.30;99.90;;;;;;5033131;28;20026;-68
2022/01/28 05:52:08;;;;;;;9.75;3.78;;;8.40;99.90;;;;;;5033448;28;20021;-68
2022/01/28 05:54:34;;;;;;;;;;;8.30;99.90;;;;;;5034436;28;20104;-68
2022/01/28 05:57:00;;;;;;;5.87;3.20;;;8.40;99.90;;;;;;5032967;28;19940;-69
2022/01/28 05:59:26;;;;;;;6.45;3.58;;;8.40;99.90;;;;;;5033400;28;20047;-69
2022/01/28 06:01:52;;;;;;;10.45;3.45;;;8.30;99.90;;;;;;5033131;28;20033;-68
2022/01/28 06:04:21;;;;;;;6.13;4.05;;;8.30;99.90;;;;;;5032724;28;20510;-69
2022/01/28 06:06:47;;;;;;;7.47;3.92;;;8.40;99.90;;;;;;5032866;28;20104;-69
2022/01/28 06:09:13;;;;;;;7.20;4.03;;;8.40;99.90;;;;;;5033016;28;20060;-68
2022/01/28 06:11:39;;;;;;;7.60;4.00;;;8.40;99.90;;;;;;5033363;28;20080;-70
2022/01/28 06:14:06;;;;;;;5.50;3.13;;;8.40;99.90;;;;;;5032790;28;20433;-69
2022/01/28 06:16:32;;;;;;;7.45;3.25;;;8.30;99.90;;;;;;5015195;28;20126;-68
2022/01/28 06:18:58;;;;;;;7.00;3.70;;;8.40;99.90;;;;;;5033391;28;20079;-69
2022/01/28 06:21:24;;;;;;;6.15;3.78;;;8.50;99.90;;;;;;5033641;28;20025;-70
2022/01/28 06:23:52;;;;;;;6.05;3.42;;;8.50;99.90;;;;;;5032963;28;20025;-69
2022/01/28 06:26:19;;;;;;;5.30;2.97;;;8.50;99.90;;;;;;5014907;28;20061;-69
2022/01/28 06:28:45;;;;;;;7.03;3.22;;;8.60;99.90;;;;;;5032521;28;20127;-68
2022/01/28 06:31:11;;;;;;;5.13;3.33;;;8.70;99.90;;;;;;5032876;28;20040;-68
2022/01/28 06:33:37;;;;;;;11.10;3.72;;;8.70;99.90;;;;;;5032201;28;20022;-67
2022/01/28 06:36:03;;;;;;;7.70;3.93;;;9.00;99.90;;;;;;5013822;28;20033;-66
2022/01/28 06:38:30;;;;;;;6.30;3.17;;;9.60;99.90;;;;;;5032804;28;20529;-69
2022/01/28 06:40:56;;;;;;;6.45;3.50;;;10.20;99.90;;;;;;5032339;28;20056;-69
2022/01/28 06:43:23;;;;;;;7.05;3.40;;;10.80;99.90;;;;;;5032560;28;20470;-67
2022/01/28 06:45:49;;;;;;;5.13;3.25;;;11.60;99.90;;;;;;5032691;28;20031;-69
2022/01/28 06:48:19;;;;;;;8.15;3.15;;;12.60;99.90;;;;;;5031844;28;20024;-72
2022/01/28 06:50:45;;;;;;;5.20;2.80;;;13.40;99.90;;;;;;5031389;28;20041;-72
2022/01/28 06:53:13;;;;;;;5.45;2.50;;;14.40;99.90;;;;;;5031364;28;20037;-72
2022/01/28 06:55:40;;;;;;;7.40;2.70;;;15.20;99.00;;;;;;5031288;28;20474;-72
2022/01/28 06:58:07;;;;;;;4.57;2.75;;;16.00;97.50;;;;;;5031356;28;20025;-73
2022/01/28 07:00:37;;;;;;;8.23;2.50;;;16.70;95.60;;;;;;5030734;28;20042;-73
2022/01/28 07:03:04;;;;;;;5.53;2.20;;;17.10;95.30;;;;;;5030747;28;20044;-72
2022/01/28 07:05:31;;;;;;;8.32;2.70;;;17.50;94.30;;;;;;5031274;28;20041;-74
2022/01/28 07:07:57;;;;;;;8.00;2.45;;;17.80;93.60;;;;;;5031260;28;20026;-72
2022/01/28 07:10:23;;;;;;;9.27;2.63;;;18.30;92.60;;;;;;5032292;28;20049;-72
2022/01/28 07:12:49;;;;;;;5.50;2.67;;;18.60;91.80;;;;;;5031676;28;20041;-73
2022/01/28 07:15:16;;;;;;;45.55;4.28;;;18.70;91.30;;;;;;5031476;28;20033;-73
2022/01/28 07:17:43;;;;;;;5.53;2.50;;;18.90;91.00;;;;;;5031505;28;20391;-67
2022/01/28 07:20:10;;;;;;;10.23;2.67;;;19.30;90.50;;;;;;5032098;28;20033;-72
2022/01/28 07:22:36;;;;;;;7.93;2.63;;;19.30;90.00;;;;;;5032012;28;20025;-74
2022/01/28 07:25:02;;;;;;;6.72;2.80;;;19.80;89.90;;;;;;5032508;28;20063;-67
2022/01/28 07:27:28;;;;;;;6.82;2.53;;;20.00;89.00;;;;;;5032318;28;20026;-72
2022/01/28 07:29:54;;;;;;;11.73;2.95;;;19.60;88.90;;;;;;5032583;28;20029;-72
2022/01/28 07:32:22;;;;;;;6.55;2.70;;;19.60;88.00;;;;;;5032191;28;20466;-72
2022/01/28 07:34:48;;;;;;;5.50;2.00;;;19.80;87.60;;;;;;5031909;28;20548;-72
2022/01/28 07:37:14;;;;;;;10.68;2.67;;;20.20;85.90;;;;;;5031656;28;20014;-74
2022/01/28 07:39:40;;;;;;;8.82;2.60;;;20.90;84.50;;;;;;5031903;28;20026;-74
2022/01/28 07:42:06;;;;;;;9.63;2.42;;;21.10;83.90;;;;;;5032051;28;20036;-73
2022/01/28 07:44:33;;;;;;;7.75;2.67;;;21.00;82.60;;;;;;5032334;28;20041;-69
2022/01/28 07:46:59;;;;;;;5.93;2.70;;;20.90;82.80;;;;;;5032334;28;20097;-73
2022/01/28 07:49:25;;;;;;;6.38;2.30;;;20.70;82.20;;;;;;5035511;28;20113;-73
2022/01/28 07:51:51;;;;;;;6.38;2.67;;;20.80;81.90;;;;;;5017723;28;20152;-74
2022/01/28 07:54:17;;;;;;;8.57;2.80;;;20.60;81.90;;;;;;5035394;28;20040;-74
2022/01/28 07:56:46;;;;;;;7.40;2.70;;;20.40;82.80;;;;;;5035304;28;20017;-74
2022/01/28 07:59:12;;;;;;;7.53;3.00;;;19.70;84.00;;;;;;5017233;28;20037;-74
2022/01/28 08:01:38;;;;;;;7.85;2.95;;;19.00;84.90;;;;;;5035166;28;20044;-74
2022/01/28 08:04:04;;;;;;;6.70;2.70;;;18.30;86.70;;;;;;5034778;28;20144;-73
2022/01/28 08:06:30;;;;;;;6.90;2.90;;;17.40;88.80;;;;;;5035288;28;20443;-74
2022/01/28 08:08:59;;;;;;;7.38;2.67;;;17.30;90.00;;;;;;5035359;28;20028;-74
2022/01/28 08:11:25;;;;;;;8.63;2.70;;;16.80;90.10;;;;;;5034896;28;20172;-73
2022/01/28 08:13:52;;;;;;;5.30;2.55;;;16.50;90.00;;;;;;5034841;28;20474;-74
2022/01/28 08:16:18;;;;;;;6.10;2.72;;;16.40;90.20;;;;;;5034803;28;20462;-74
2022/01/28 08:18:44;;;;;;;7.05;2.97;;;16.50;90.20;;;;;;5034913;28;20385;-75
2022/01/28 08:21:10;;;;;;;5.93;3.28;;;16.50;90.40;;;;;;5035119;28;20526;-73
2022/01/28 08:23:36;;;;;;;8.05;2.88;;;16.70;90.70;;;;;;5035262;28;20053;-72
2022/01/28 08:26:04;;;;;;;8.68;3.38;;;16.50;91.10;;;;;;5034656;28;20056;-74
2022/01/28 08:28:30;;;;;;;4.40;2.67;;;16.70;91.20;;;;;;5034815;28;20021;-73
2022/01/28 08:30:56;;;;;;;9.57;2.58;;;16.60;91.00;;;;;;5034876;28;20064;-73
2022/01/28 08:33:22;;;;;;;9.18;3.58;;;16.60;90.60;;;;;;5034342;28;20061;-72
2022/01/28 08:35:52;;;;;;;8.43;2.88;;;16.60;91.10;;;;;;5034192;28;20018;-73
2022/01/28 08:38:29;;;;;;;5.57;2.08;;;16.40;91.00;;;;;;5034237;28;20030;-72
2022/01/28 08:40:58;;;;;;;4.63;2.00;;;16.30;90.90;;;;;;5034872;28;20151;-72
2022/01/28 08:43:25;;;;;;;5.47;1.88;;;16.20;90.70;;;;;;5034047;28;20041;-73
2022/01/28 08:45:52;;;;;;;4.78;1.90;;;16.40;91.00;;;;;;5016398;28;20129;-74
2022/01/28 08:48:18;;;;;;;5.90;2.13;;;16.40;91.00;;;;;;5034108;28;20040;-73
2022/01/28 08:50:44;;;;;;;4.20;1.85;;;16.30;91.60;;;;;;5033915;28;20021;-75
2022/01/28 08:53:11;;;;;;;5.90;1.90;;;16.30;91.50;;;;;;5032071;28;20025;-75
2022/01/28 08:55:38;;;;;;;;;;;16.50;91.60;;;;;;5033016;28;20038;-73
2022/01/28 08:58:08;;;;;;;5.15;2.10;;;16.40;91.60;;;;;;5032877;28;19979;-76
2022/01/28 09:00:34;;;;;;;8.57;2.17;;;16.40;91.50;;;;;;5015651;28;20040;-76
2022/01/28 09:03:00;;;;;;;5.78;2.80;;;16.40;91.40;;;;;;5032917;28;20470;-74
2022/01/28 09:05:28;;;;;;;7.55;2.47;;;16.20;92.10;;;;;;5033495;28;20037;-75
2022/01/28 09:07:55;;;;;;;6.57;2.35;;;16.10;91.90;;;;;;5033026;28;20025;-74
2022/01/28 09:10:29;;;;;;;7.38;2.38;;;16.20;92.00;;;;;;5033255;28;20029;-76
2022/01/28 09:15:32;;;;;;;6.93;2.20;;;16.20;91.90;;;;;;5032957;28;20550;-75
2022/01/28 09:17:58;;;;;;;5.72;2.17;;;16.50;92.10;;;;;;5033326;28;20097;-75
2022/01/28 09:20:24;;;;;;;4.78;2.60;;;16.30;92.00;;;;;;5033535;28;20082;-75
2022/01/28 09:22:51;;;;;;;6.20;2.45;;;15.70;92.70;;;;;;5033248;28;20053;-75
2022/01/28 09:25:17;;;;;;;4.80;2.50;;;15.40;93.30;;;;;;5033439;28;20393;-76
2022/01/28 09:27:43;;;;;;;4.57;2.42;;;15.10;93.60;;;;;;5033203;28;20083;-74
2022/01/28 09:30:09;;;;;;;5.97;2.47;;;15.40;93.50;;;;;;5033281;28;20121;-74
2022/01/28 09:32:36;;;;;;;7.18;2.65;;;15.70;92.90;;;;;;5032022;28;20033;-77
2022/01/28 09:35:02;;;;;;;3.80;1.75;;;15.70;92.90;;;;;;5015509;28;20044;-75
2022/01/28 09:37:29;;;;;;;9.05;2.30;;;15.40;93.00;;;;;;5032976;28;20057;-75
2022/01/28 09:39:55;;;;;;;4.18;2.13;;;15.70;93.40;;;;;;5014793;28;20029;-75
2022/01/28 09:42:25;;;;;;;4.60;2.35;;;15.90;93.00;;;;;;5033831;28;20029;-75
2022/01/28 09:44:54;;;;;;;3.63;1.88;;;15.90;92.60;;;;;;5033039;28;20086;-75
2022/01/28 09:47:21;;;;;;;4.32;2.17;;;15.70;92.80;;;;;;5032908;28;20052;-76
2022/01/28 09:49:48;;;;;;;4.50;1.88;;;15.70;93.30;;;;;;5032143;28;20026;-76
2022/01/28 09:52:14;;;;;;;5.93;1.90;;;15.80;92.60;;;;;;5032646;28;20030;-74
2022/01/28 09:54:46;;;;;;;3.95;1.90;;;16.00;92.80;;;;;;5031912;28;20479;-76
2022/01/28 09:57:17;;;;;;;5.70;1.50;;;15.90;92.30;;;;;;5014571;28;20033;-76
2022/01/28 09:59:43;;;;;;;4.40;1.77;;;15.70;92.20;;;;;;5032664;28;20029;-75
2022/01/28 10:02:09;;;;;;;6.35;2.03;;;15.50;92.30;;;;;;5032166;28;20033;-75
2022/01/28 10:04:36;;;;;;;3.75;1.80;;;15.40;92.70;;;;;;5032722;28;20057;-76
2022/01/28 10:07:12;;;;;;;5.72;1.88;;;15.80;92.40;;;;;;5032600;28;20497;-76
2022/01/28 10:09:59;;;;;;;3.33;1.73;;;15.60;92.60;;;;;;5032130;28;20394;-76
2022/01/28 10:12:37;;;;;;;;;;;15.70;92.40;;;;;;5033033;28;20032;-75
2022/01/28 10:15:16;;;;;;;4.65;1.85;;;15.60;92.40;;;;;;5032460;28;19963;-76
2022/01/28 10:17:55;;;;;;;6.40;1.70;;;15.80;92.20;;;;;;5032197;28;20413;-76
2022/01/28 10:20:23;;;;;;;3.72;1.60;;;15.60;91.90;;;;;;5032011;28;20459;-74
2022/01/28 10:22:55;;;;;;;6.10;1.50;;;15.50;92.70;;;;;;5031727;28;20052;-75
2022/01/28 10:25:23;;;;;;;3.90;1.50;;;15.80;92.60;;;;;;5032150;28;20068;-75
2022/01/28 10:28:08;;;;;;;4.05;1.35;;;15.80;91.80;;;;;;5032145;28;20026;-75
2022/01/28 10:30:40;;;;;;;2.28;1.30;;;15.80;92.00;;;;;;5014385;28;20331;-74
2022/01/28 10:33:23;;;;;;;3.75;1.70;;;15.80;91.80;;;;;;5031435;28;20132;-75
2022/01/28 10:35:57;;;;;;;5.45;1.35;;;15.90;91.60;;;;;;5032444;28;20108;-77
2022/01/28 10:38:31;;;;;;;3.28;1.50;;;16.00;91.20;;;;;;5031936;28;20037;-75
2022/01/28 10:41:11;;;;;;;3.38;1.65;;;15.90;91.40;;;;;;5031983;28;20029;-73
2022/01/28 10:43:43;;;;;;;4.57;2.42;;;16.00;91.50;;;;;;5032331;28;20029;-76
2022/01/28 10:46:09;;;;;;;5.82;2.10;;;15.80;91.50;;;;;;5032355;28;20118;-76
2022/01/28 10:48:57;;;;;;;5.88;2.05;;;16.00;92.00;;;;;;5031896;28;20047;-76
2022/01/28 10:51:36;;;;;;;4.32;1.80;;;16.10;91.50;;;;;;5032008;28;20063;-76
2022/01/28 10:54:14;;;;;;;3.47;1.80;;;16.20;91.50;;;;;;5031600;28;20128;-74
2022/01/28 10:56:55;;;;;;;5.97;1.80;;;16.20;91.40;;;;;;5031848;28;20049;-77
2022/01/28 10:59:43;;;;;;;7.00;1.83;;;16.20;91.20;;;;;;5046285;28;20056;-77
2022/01/28 11:02:09;;;;;;;5.88;2.35;;;16.40;91.20;;;;;;5030862;28;20025;-76
2022/01/28 11:04:36;;;;;;;6.05;2.50;;;16.00;91.10;;;;;;5031293;28;20144;-77
2022/01/28 11:07:03;;;;;;;5.55;2.50;;;15.90;91.80;;;;;;5031427;28;20450;-78
2022/01/28 11:09:30;;;;;;;7.82;3.28;;;15.70;91.90;;;;;;5030997;28;20458;-77
2022/01/28 11:11:56;;;;;;;5.55;2.40;;;15.80;92.50;;;;;;5030774;28;20030;-76
2022/01/28 11:14:25;;;;;;;4.25;2.60;;;16.10;92.10;;;;;;5030306;28;20025;-76
2022/01/28 11:16:56;;;;;;;7.55;2.60;;;16.20;91.90;;;;;;5030442;28;20476;-71
2022/01/28 11:19:23;;;;;;;5.95;3.08;;;16.20;91.60;;;;;;5027853;28;20444;-74
2022/01/28 11:22:08;;;;;;;6.25;2.30;;;16.30;91.80;;;;;;5014301;28;20124;-76
2022/01/28 11:24:55;;;;;;;5.15;2.60;;;16.50;91.50;;;;;;5034716;28;20104;-76
2022/01/28 11:27:38;;;;;;;6.60;2.30;;;16.60;91.40;;;;;;5035173;28;20018;-77
2022/01/28 11:30:22;;;;;;;6.20;2.65;;;16.80;90.90;;;;;;5016441;28;20048;-75
2022/01/28 11:33:01;;;;;;;6.28;2.95;;;16.50;91.10;;;;;;5035414;28;20174;-76
2022/01/28 11:35:49;;;;;;;7.22;3.25;;;16.50;91.40;;;;;;5034814;28;20141;-76
2022/01/28 11:38:27;;;;;;;5.25;2.90;;;16.50;91.40;;;;;;5034674;28;20025;-77
2022/01/28 11:40:56;;;;;;;12.13;2.70;;;16.10;92.20;;;;;;5034265;28;20037;-77
2022/01/28 11:43:27;;;;;;;6.90;3.17;;;16.20;92.10;;;;;;5034855;28;20095;-77
2022/01/28 11:46:06;;;;;;;7.68;3.28;;;16.20;92.40;;;;;;5034979;28;20439;-77
2022/01/28 11:49:07;;;;;;;8.88;3.60;;;16.40;92.50;;;;;;5035489;28;20013;-76
2022/01/28 11:51:41;;;;;;;9.02;3.00;;;16.50;92.50;;;;;;4972657;28;20117;-76
2022/01/28 11:54:18;;;;;;;7.93;2.90;;;16.60;92.40;;;;;;5015665;28;20053;-74
2022/01/28 11:56:56;;;;;;;7.53;2.78;;;16.70;92.60;;;;;;5015561;28;20104;-75
2022/01/28 11:59:26;;;;;;;8.15;3.17;;;16.90;92.30;;;;;;5014991;28;20080;-76
2022/01/28 12:01:52;;;;;;;6.40;2.90;;;16.70;92.90;;;;;;5013903;28;20048;-76
2022/01/28 12:04:25;;;;;;;7.20;2.90;;;16.60;92.80;;;;;;5013520;28;20054;-76
2022/01/28 12:06:54;;;;;;;8.15;2.67;;;16.80;93.00;;;;;;5013671;28;20598;-76
2022/01/28 12:09:23;;;;;;;6.90;2.63;;;16.90;92.90;;;;;;5014292;28;20034;-74
2022/01/28 12:11:49;;;;;;;5.55;2.78;;;17.00;92.40;;;;;;5014418;28;20097;-76
2022/01/28 12:14:16;;;;;;;5.65;2.58;;;17.10;92.70;;;;;;5013637;28;20428;-75
2022/01/28 12:16:45;;;;;;;7.85;2.90;;;17.30;92.30;;;;;;5013508;28;20025;-76
2022/01/28 12:19:19;;;;;;;5.75;2.30;;;17.10;92.10;;;;;;5013876;28;20025;-76
2022/01/28 12:22:11;;;;;;;6.22;2.30;;;17.20;92.00;;;;;;5020119;28;20037;-75
2022/01/28 12:24:38;;;;;;;4.70;2.25;;;17.00;91.90;;;;;;4993232;28;20119;-75
2022/01/28 12:27:05;;;;;;;;;;;17.10;92.10;;;;;;5033856;28;20030;-75
2022/01/28 12:29:36;;;;;;;6.25;2.20;;;17.10;92.60;;;;;;5033521;28;19958;-75
2022/01/28 12:32:04;;;;;;;4.35;2.10;;;17.20;92.80;;;;;;5033876;28;20032;-73
2022/01/28 12:34:30;;;;;;;4.45;2.03;;;17.10;92.70;;;;;;5015594;28;20052;-73
2022/01/28 12:36:58;;;;;;;5.50;2.25;;;17.00;92.80;;;;;;5034055;28;20072;-73
2022/01/28 12:39:33;;;;;;;5.45;2.28;;;17.00;92.50;;;;;;5034048;28;20033;-74
2022/01/28 12:42:10;;;;;;;3.83;1.85;;;17.10;92.00;;;;;;5033831;28;20031;-74
2022/01/28 12:44:38;;;;;;;4.20;1.90;;;17.20;91.50;;;;;;5034182;28;20045;-73
2022/01/28 12:47:09;;;;;;;7.25;2.28;;;17.30;91.70;;;;;;5033303;28;20033;-73
2022/01/28 12:49:37;;;;;;;4.28;2.00;;;17.30;91.50;;;;;;5033314;28;20035;-74
2022/01/28 12:52:08;;;;;;;5.20;2.03;;;17.10;91.80;;;;;;5033491;28;20022;-75
2022/01/28 12:54:37;;;;;;;6.53;2.00;;;16.90;92.20;;;;;;5033888;28;20044;-73
2022/01/28 12:57:05;;;;;;;5.35;2.05;;;16.80;92.20;;;;;;5033604;28;20437;-73
2022/01/28 12:59:32;;;;;;;6.32;2.15;;;16.60;92.60;;;;;;5033762;28;20136;-75
2022/01/28 13:01:58;;;;;;;6.22;2.03;;;16.50;92.80;;;;;;5014881;28;20036;-73
2022/01/28 13:04:37;;;;;;;11.13;2.40;;;16.50;93.30;;;;;;5033212;28;20081;-74
2022/01/28 13:09:50;;;;;;;5.07;2.10;;;16.60;92.50;;;;;;5034639;28;20080;-74
2022/01/28 13:12:23;;;;;;;4.13;1.70;;;16.60;92.60;;;;;;5033899;28;20104;-73
2022/01/28 13:14:50;;;;;;;3.90;2.03;;;16.30;93.00;;;;;;5015983;28;20029;-74
2022/01/28 13:17:23;;;;;;;4.68;1.90;;;16.20;93.30;;;;;;5033763;28;20034;-75
2022/01/28 13:19:54;;;;;;;5.45;1.65;;;16.40;93.20;;;;;;5034390;28;20470;-75
2022/01/28 13:22:26;;;;;;;7.35;1.83;;;16.20;93.40;;;;;;5034194;28;20109;-74
2022/01/28 13:24:53;;;;;;;5.63;1.80;;;16.40;93.20;;;;;;5034313;28;20041;-74
2022/01/28 13:27:20;;;;;;;3.03;1.60;;;16.40;93.00;;;;;;5034239;28;20018;-74
2022/01/28 13:29:51;;;;;;;5.80;1.75;;;16.60;92.30;;;;;;5033848;28;20065;-74
2022/01/28 13:32:30;;;;;;;3.25;1.50;;;16.60;91.60;;;;;;5033795;28;20032;-74
2022/01/28 13:35:00;;;;;;;4.65;1.50;;;16.50;91.70;;;;;;5034068;28;20029;-74
2022/01/28 13:37:38;;;;;;;3.33;1.65;;;16.50;91.20;;;;;;5034091;28;20026;-74
2022/01/28 13:40:18;;;;;;;4.32;1.80;;;16.40;91.50;;;;;;5034283;28;20029;-75
2022/01/28 13:43:02;;;;;;;5.18;2.03;;;16.60;91.90;;;;;;5034244;28;20036;-74
2022/01/28 13:45:51;;;;;;;10.18;1.70;;;16.50;91.50;;;;;;5034228;28;20037;-74
2022/01/28 13:48:33;;;;;;;5.18;1.75;;;16.50;92.00;;;;;;5033889;28;20028;-73
2022/01/28 13:51:17;;;;;;;4.18;1.95;;;16.50;92.30;;;;;;5032946;28;20029;-74
2022/01/28 13:54:15;;;;;;;4.65;1.80;;;16.40;92.80;;;;;;5033114;28;20482;-73
2022/01/28 13:56:43;;;;;;;12.15;2.13;;;16.30;93.50;;;;;;5032519;28;20120;-74
2022/01/28 13:59:11;;;;;;;5.28;1.90;;;16.40;93.20;;;;;;5032678;28;20112;-74
2022/01/28 14:01:38;;;;;;;3.58;1.70;;;16.50;93.00;;;;;;5033065;28;20021;-73
2022/01/28 14:04:04;;;;;;;3.08;1.50;;;16.20;92.90;;;;;;5014685;28;20079;-73
2022/01/28 14:06:32;;;;;;;5.90;1.85;;;16.40;92.90;;;;;;5032706;28;20355;-73
2022/01/28 14:09:18;;;;;;;6.13;2.10;;;16.50;92.20;;;;;;5032969;28;20025;-73
2022/01/28 14:11:49;;;;;;;5.28;2.08;;;16.50;92.10;;;;;;5033086;28;20021;-74
2022/01/28 14:14:21;;;;;;;5.32;1.80;;;16.10;92.40;;;;;;5032375;28;20382;-73
2022/01/28 14:16:52;;;;;;;6.55;1.80;;;16.10;92.30;;;;;;5032758;28;20555;-74
2022/01/28 14:19:18;;;;;;;6.82;1.80;;;16.30;92.20;;;;;;5033235;28;20109;-73
2022/01/28 14:21:46;;;;;;;4.35;1.83;;;16.40;92.30;;;;;;5032878;28;20022;-72
2022/01/28 14:24:20;;;;;;;5.45;2.17;;;16.30;92.10;;;;;;5032707;28;20474;-73
2022/01/28 14:26:57;;;;;;;5.47;2.17;;;16.20;92.30;;;;;;5033421;28;20060;-73